sensor_id;sensor_type;location;lat;lon;timestamp;temperature;humidity
12885;DHT22;6510;51.362;7.370;2022-11-15T00:00:45;10.00;99.90
12885;DHT22;6510;51.362;7.370;2022-11-15T00:03:16;10.00;99.90
12885;DHT22;6510;51.362;7.370;2022-11-15T00:05:43;10.00;99.90
12885;DHT22;6510;51.362;7.370;2022-11-15T00:08:09;10.20;99.90
12885;DHT22;6510;51.362;7.370;2022-11-15T00:10:35;10.20;99.90
12885;DHT22;6510;51.362;7.370;2022-11-15T00:13:08;10.30;99.90
12885;DHT22;6510;51.362;7.370;2022-11-15T00:15:40;10.40;99.90
12885;DHT22;6510;51.362;7.370;2022-11-15T00:18:16;10.40;99.90
12885;DHT22;6510;51.362;7.370;2022-11-15T00:20:42;10.50;99.90
12885;DHT22;6510;51.362;7.370;2022-11-15T00:23:08;10.50;99.90
12885;DHT22;6510;51.362;7.370;2022-11-15T00:25:34;10.50;99.90
12885;DHT22;6510;51.362;7.370;2022-11-15T00:28:01;10.50;99.90
12885;DHT22;6510;51.362;7.370;2022-11-15T00:30:27;10.60;99.90
12885;DHT22;6510;51.362;7.370;2022-11-15T00:32:53;10.60;99.90
12885;DHT22;6510;51.362;7.370;2022-11-15T00:35:19;10.60;99.90
12885;DHT22;6510;51.362;7.370;2022-11-15T00:37:45;10.70;99.90
12885;DHT22;6510;51.362;7.370;2022-11-15T00:40:13;10.80;99.90
12885;DHT22;6510;51.362;7.370;2022-11-15T00:42:39;10.70;99.90
12885;DHT22;6510;51.362;7.370;2022-11-15T00:45:05;10.90;99.90
12885;DHT22;6510;51.362;7.370;2022-11-15T00:47:31;10.80;99.90
12885;DHT22;6510;51.362;7.370;2022-11-15T00:49:57;10.90;99.90
12885;DHT22;6510;51.362;7.370;2022-11-15T00:52:23;10.90;99.90
12885;DHT22;6510;51.362;7.370;2022-11-15T00:54:48;10.90;99.90
12885;DHT22;6510;51.362;7.370;2022-11-15T00:57:14;10.90;99.90
12885;DHT22;6510;51.362;7.370;2022-11-15T00:59:39;10.90;99.90
12885;DHT22;6510;51.362;7.370;2022-11-15T01:02:05;10.90;99.90
12885;DHT22;6510;51.362;7.370;2022-11-15T01:04:31;10.90;99.90
12885;DHT22;6510;51.362;7.370;2022-11-15T01:06:59;10.90;99.90
12885;DHT22;6510;51.362;7.370;2022-11-15T01:09:25;11.00;99.90
12885;DHT22;6510;51.362;7.370;2022-11-15T01:11:50;11.00;99.90
12885;DHT22;6510;51.362;7.370;2022-11-15T01:14:17;11.00;99.90
12885;DHT22;6510;51.362;7.370;2022-11-15T01:16:42;11.00;99.90
12885;DHT22;6510;51.362;7.370;2022-11-15T01:19:08;11.10;99.90
12885;DHT22;6510;51.362;7.370;2022-11-15T01:21:33;11.10;99.90
12885;DHT22;6510;51.362;7.370;2022-11-15T01:23:59;11.00;99.90
12885;DHT22;6510;51.362;7.370;2022-11-15T01:26:25;11.00;99.90
12885;DHT22;6510;51.362;7.370;2022-11-15T01:28:50;11.00;99.90
12885;DHT22;6510;51.362;7.370;2022-11-15T01:31:20;11.00;99.90
12885;DHT22;6510;51.362;7.370;2022-11-15T01:33:47;11.10;99.90
12885;DHT22;6510;51.362;7.370;2022-11-15T01:36:15;11.10;99.90
12885;DHT22;6510;51.362;7.370;2022-11-15T01:38:41;11.10;99.90
12885;DHT22;6510;51.362;7.370;2022-11-15T01:41:16;11.00;99.90
12885;DHT22;6510;51.362;7.370;2022-11-15T01:43:43;11.10;99.90
12885;DHT22;6510;51.362;7.370;2022-11-15T01:48:50;11.10;99.90
12885;DHT22;6510;51.362;7.370;2022-11-15T01:51:18;11.10;99.90
12885;DHT22;6510;51.362;7.370;2022-11-15T01:53:46;11.00;99.90
12885;DHT22;6510;51.362;7.370;2022-11-15T01:56:16;11.00;99.90
12885;DHT22;6510;51.362;7.370;2022-11-15T01:58:44;11.00;99.90
12885;DHT22;6510;51.362;7.370;2022-11-15T02:01:11;10.90;99.90
12885;DHT22;6510;51.362;7.370;2022-11-15T02:03:54;10.90;99.90
12885;DHT22;6510;51.362;7.370;2022-11-15T02:06:22;10.90;99.90
12885;DHT22;6510;51.362;7.370;2022-11-15T02:08:48;10.90;99.90
12885;DHT22;6510;51.362;7.370;2022-11-15T02:11:15;10.90;99.90
12885;DHT22;6510;51.362;7.370;2022-11-15T02:13:41;10.90;99.90
12885;DHT22;6510;51.362;7.370;2022-11-15T02:16:43;10.90;99.90
12885;DHT22;6510;51.362;7.370;2022-11-15T02:25:41;10.90;99.90
12885;DHT22;6510;51.362;7.370;2022-11-15T02:34:26;10.80;99.90
12885;DHT22;6510;51.362;7.370;2022-11-15T02:36:41;10.80;99.90
12885;DHT22;6510;51.362;7.370;2022-11-15T02:39:33;10.70;99.90
12885;DHT22;6510;51.362;7.370;2022-11-15T02:42:24;10.70;99.90
12885;DHT22;6510;51.362;7.370;2022-11-15T02:45:17;10.70;99.90
12885;DHT22;6510;51.362;7.370;2022-11-15T02:47:46;10.70;99.90
12885;DHT22;6510;51.362;7.370;2022-11-15T02:50:18;10.70;99.90
12885;DHT22;6510;51.362;7.370;2022-11-15T02:53:00;10.70;99.90
12885;DHT22;6510;51.362;7.370;2022-11-15T02:55:31;10.80;99.90
12885;DHT22;6510;51.362;7.370;2022-11-15T03:01:01;10.90;99.90
12885;DHT22;6510;51.362;7.370;2022-11-15T03:03:37;10.90;99.90
12885;DHT22;6510;51.362;7.370;2022-11-15T03:06:20;10.90;99.90
12885;DHT22;6510;51.362;7.370;2022-11-15T03:11:29;11.00;99.90
12885;DHT22;6510;51.362;7.370;2022-11-15T03:14:00;11.00;99.90
12885;DHT22;6510;51.362;7.370;2022-11-15T03:16:30;11.10;99.90
12885;DHT22;6510;51.362;7.370;2022-11-15T03:19:08;11.10;99.90
12885;DHT22;6510;51.362;7.370;2022-11-15T03:21:40;11.20;99.90
12885;DHT22;6510;51.362;7.370;2022-11-15T03:24:07;11.10;99.90
12885;DHT22;6510;51.362;7.370;2022-11-15T03:26:35;11.10;99.90
12885;DHT22;6510;51.362;7.370;2022-11-15T03:29:15;11.20;99.90
12885;DHT22;6510;51.362;7.370;2022-11-15T03:31:45;11.10;99.90
12885;DHT22;6510;51.362;7.370;2022-11-15T03:34:22;11.10;99.90
12885;DHT22;6510;51.362;7.370;2022-11-15T03:36:51;11.10;99.90
12885;DHT22;6510;51.362;7.370;2022-11-15T03:39:17;11.10;99.90
12885;DHT22;6510;51.362;7.370;2022-11-15T03:41:51;11.20;99.90
12885;DHT22;6510;51.362;7.370;2022-11-15T03:49:36;11.10;99.90
12885;DHT22;6510;51.362;7.370;2022-11-15T03:52:04;11.10;99.90
12885;DHT22;6510;51.362;7.370;2022-11-15T03:54:30;11.10;99.90
12885;DHT22;6510;51.362;7.370;2022-11-15T03:56:56;11.10;99.90
12885;DHT22;6510;51.362;7.370;2022-11-15T03:59:22;11.10;99.90
12885;DHT22;6510;51.362;7.370;2022-11-15T04:01:48;11.00;99.90
12885;DHT22;6510;51.362;7.370;2022-11-15T04:04:13;11.00;99.90
12885;DHT22;6510;51.362;7.370;2022-11-15T04:06:39;11.00;99.90
12885;DHT22;6510;51.362;7.370;2022-11-15T04:09:05;11.00;99.90
12885;DHT22;6510;51.362;7.370;2022-11-15T04:11:30;11.10;99.90
12885;DHT22;6510;51.362;7.370;2022-11-15T04:13:56;11.10;99.90
12885;DHT22;6510;51.362;7.370;2022-11-15T04:16:21;11.10;99.90
12885;DHT22;6510;51.362;7.370;2022-11-15T04:18:47;11.20;99.90
12885;DHT22;6510;51.362;7.370;2022-11-15T04:21:32;11.20;99.90
12885;DHT22;6510;51.362;7.370;2022-11-15T04:24:16;11.20;99.90
12885;DHT22;6510;51.362;7.370;2022-11-15T04:26:42;11.20;99.90
12885;DHT22;6510;51.362;7.370;2022-11-15T04:29:08;11.30;99.90
12885;DHT22;6510;51.362;7.370;2022-11-15T04:32:08;11.20;99.90
12885;DHT22;6510;51.362;7.370;2022-11-15T04:34:34;11.20;99.90
12885;DHT22;6510;51.362;7.370;2022-11-15T04:37:00;11.20;99.90
12885;DHT22;6510;51.362;7.370;2022-11-15T04:39:39;11.30;99.90
12885;DHT22;6510;51.362;7.370;2022-11-15T04:42:08;11.30;99.90
12885;DHT22;6510;51.362;7.370;2022-11-15T04:44:34;11.30;99.90
12885;DHT22;6510;51.362;7.370;2022-11-15T04:47:03;11.30;99.90
12885;DHT22;6510;51.362;7.370;2022-11-15T04:49:28;11.30;99.90
12885;DHT22;6510;51.362;7.370;2022-11-15T04:51:54;11.30;99.90
12885;DHT22;6510;51.362;7.370;2022-11-15T04:54:20;11.30;99.90
12885;DHT22;6510;51.362;7.370;2022-11-15T04:56:45;11.30;99.90
12885;DHT22;6510;51.362;7.370;2022-11-15T04:59:11;11.30;99.90
12885;DHT22;6510;51.362;7.370;2022-11-15T05:01:36;11.20;99.90
12885;DHT22;6510;51.362;7.370;2022-11-15T05:04:02;11.20;99.90
12885;DHT22;6510;51.362;7.370;2022-11-15T05:06:50;11.20;99.90
12885;DHT22;6510;51.362;7.370;2022-11-15T05:09:19;11.20;99.90
12885;DHT22;6510;51.362;7.370;2022-11-15T05:11:45;11.30;99.90
12885;DHT22;6510;51.362;7.370;2022-11-15T05:14:12;11.30;99.90
12885;DHT22;6510;51.362;7.370;2022-11-15T05:16:38;11.30;99.90
12885;DHT22;6510;51.362;7.370;2022-11-15T05:19:05;11.30;99.90
12885;DHT22;6510;51.362;7.370;2022-11-15T05:21:34;11.30;99.90
12885;DHT22;6510;51.362;7.370;2022-11-15T05:24:00;11.40;99.90
12885;DHT22;6510;51.362;7.370;2022-11-15T05:26:26;11.40;99.90
12885;DHT22;6510;51.362;7.370;2022-11-15T05:28:56;11.40;99.90
12885;DHT22;6510;51.362;7.370;2022-11-15T05:31:23;11.40;99.90
12885;DHT22;6510;51.362;7.370;2022-11-15T05:33:50;11.40;99.90
12885;DHT22;6510;51.362;7.370;2022-11-15T05:36:37;11.40;99.90
12885;DHT22;6510;51.362;7.370;2022-11-15T05:39:05;11.30;99.90
12885;DHT22;6510;51.362;7.370;2022-11-15T05:41:34;11.30;99.90
12885;DHT22;6510;51.362;7.370;2022-11-15T05:44:01;11.30;99.90
12885;DHT22;6510;51.362;7.370;2022-11-15T05:46:29;11.20;99.90
12885;DHT22;6510;51.362;7.370;2022-11-15T05:48:55;11.30;99.90
12885;DHT22;6510;51.362;7.370;2022-11-15T05:51:22;11.30;99.90
12885;DHT22;6510;51.362;7.370;2022-11-15T05:53:49;11.30;99.90
12885;DHT22;6510;51.362;7.370;2022-11-15T05:56:15;11.30;99.90
12885;DHT22;6510;51.362;7.370;2022-11-15T05:58:41;11.40;99.90
12885;DHT22;6510;51.362;7.370;2022-11-15T06:01:07;11.30;99.90
12885;DHT22;6510;51.362;7.370;2022-11-15T06:03:33;11.30;99.90
12885;DHT22;6510;51.362;7.370;2022-11-15T06:05:58;11.40;99.90
12885;DHT22;6510;51.362;7.370;2022-11-15T06:08:24;11.40;99.90
12885;DHT22;6510;51.362;7.370;2022-11-15T06:10:50;11.40;99.90
12885;DHT22;6510;51.362;7.370;2022-11-15T06:13:15;11.40;99.90
12885;DHT22;6510;51.362;7.370;2022-11-15T06:15:41;11.40;99.90
12885;DHT22;6510;51.362;7.370;2022-11-15T06:18:06;11.40;99.90
12885;DHT22;6510;51.362;7.370;2022-11-15T06:20:32;11.50;99.90
12885;DHT22;6510;51.362;7.370;2022-11-15T06:23:03;11.50;99.90
12885;DHT22;6510;51.362;7.370;2022-11-15T06:25:30;11.40;99.90
12885;DHT22;6510;51.362;7.370;2022-11-15T06:27:59;11.50;99.90
12885;DHT22;6510;51.362;7.370;2022-11-15T06:30:26;11.50;99.90
12885;DHT22;6510;51.362;7.370;2022-11-15T06:32:57;11.50;99.90
12885;DHT22;6510;51.362;7.370;2022-11-15T06:35:23;11.50;99.90
12885;DHT22;6510;51.362;7.370;2022-11-15T06:37:49;11.50;99.90
12885;DHT22;6510;51.362;7.370;2022-11-15T06:40:15;11.50;99.90
12885;DHT22;6510;51.362;7.370;2022-11-15T06:42:40;11.50;99.90
12885;DHT22;6510;51.362;7.370;2022-11-15T06:45:06;11.50;99.90
12885;DHT22;6510;51.362;7.370;2022-11-15T06:47:32;11.50;99.90
12885;DHT22;6510;51.362;7.370;2022-11-15T06:49:58;11.50;99.90
12885;DHT22;6510;51.362;7.370;2022-11-15T06:52:23;11.50;99.90
12885;DHT22;6510;51.362;7.370;2022-11-15T06:54:49;11.50;99.90
12885;DHT22;6510;51.362;7.370;2022-11-15T06:57:15;11.50;99.90
12885;DHT22;6510;51.362;7.370;2022-11-15T06:59:40;11.50;99.90
12885;DHT22;6510;51.362;7.370;2022-11-15T07:02:06;11.40;99.90
12885;DHT22;6510;51.362;7.370;2022-11-15T07:04:31;11.40;99.90
12885;DHT22;6510;51.362;7.370;2022-11-15T07:06:57;11.40;99.90
12885;DHT22;6510;51.362;7.370;2022-11-15T07:09:23;11.40;99.90
12885;DHT22;6510;51.362;7.370;2022-11-15T07:11:48;11.30;99.90
12885;DHT22;6510;51.362;7.370;2022-11-15T07:14:14;11.30;99.90
12885;DHT22;6510;51.362;7.370;2022-11-15T07:16:39;11.20;99.90
12885;DHT22;6510;51.362;7.370;2022-11-15T07:19:05;11.20;99.90
12885;DHT22;6510;51.362;7.370;2022-11-15T07:21:30;11.20;99.90
12885;DHT22;6510;51.362;7.370;2022-11-15T07:23:57;11.30;99.90
12885;DHT22;6510;51.362;7.370;2022-11-15T07:26:23;11.10;99.90
12885;DHT22;6510;51.362;7.370;2022-11-15T07:28:49;11.10;99.90
12885;DHT22;6510;51.362;7.370;2022-11-15T07:31:14;11.00;99.90
12885;DHT22;6510;51.362;7.370;2022-11-15T07:33:40;11.10;99.90
12885;DHT22;6510;51.362;7.370;2022-11-15T07:36:06;11.10;99.90
12885;DHT22;6510;51.362;7.370;2022-11-15T07:38:33;11.20;99.90
12885;DHT22;6510;51.362;7.370;2022-11-15T07:41:01;11.20;99.90
12885;DHT22;6510;51.362;7.370;2022-11-15T07:43:27;11.20;99.90
12885;DHT22;6510;51.362;7.370;2022-11-15T07:45:55;11.20;99.90
12885;DHT22;6510;51.362;7.370;2022-11-15T07:48:21;11.10;99.90
12885;DHT22;6510;51.362;7.370;2022-11-15T07:50:46;11.10;99.90
12885;DHT22;6510;51.362;7.370;2022-11-15T07:53:12;11.10;99.90
12885;DHT22;6510;51.362;7.370;2022-11-15T07:55:41;11.20;99.90
12885;DHT22;6510;51.362;7.370;2022-11-15T07:58:10;11.30;99.90
12885;DHT22;6510;51.362;7.370;2022-11-15T08:00:36;11.30;99.90
12885;DHT22;6510;51.362;7.370;2022-11-15T08:03:07;11.20;99.90
12885;DHT22;6510;51.362;7.370;2022-11-15T08:05:33;11.40;99.90
12885;DHT22;6510;51.362;7.370;2022-11-15T08:07:59;11.50;99.90
12885;DHT22;6510;51.362;7.370;2022-11-15T08:10:26;11.50;99.90
12885;DHT22;6510;51.362;7.370;2022-11-15T08:13:11;11.50;99.90
12885;DHT22;6510;51.362;7.370;2022-11-15T08:15:38;11.70;99.90
12885;DHT22;6510;51.362;7.370;2022-11-15T08:18:12;11.90;99.90
12885;DHT22;6510;51.362;7.370;2022-11-15T08:20:38;11.90;99.90
12885;DHT22;6510;51.362;7.370;2022-11-15T08:23:04;11.90;99.90
12885;DHT22;6510;51.362;7.370;2022-11-15T08:25:31;12.40;99.90
12885;DHT22;6510;51.362;7.370;2022-11-15T08:28:07;12.80;99.90
12885;DHT22;6510;51.362;7.370;2022-11-15T08:30:38;12.60;99.90
12885;DHT22;6510;51.362;7.370;2022-11-15T08:33:10;12.90;99.90
12885;DHT22;6510;51.362;7.370;2022-11-15T08:35:36;12.90;99.90
12885;DHT22;6510;51.362;7.370;2022-11-15T08:38:02;12.60;99.90
12885;DHT22;6510;51.362;7.370;2022-11-15T08:40:27;12.40;99.90
12885;DHT22;6510;51.362;7.370;2022-11-15T08:42:53;12.30;99.90
12885;DHT22;6510;51.362;7.370;2022-11-15T08:45:19;12.10;99.90
12885;DHT22;6510;51.362;7.370;2022-11-15T08:47:44;12.10;99.90
12885;DHT22;6510;51.362;7.370;2022-11-15T08:50:10;12.00;99.90
12885;DHT22;6510;51.362;7.370;2022-11-15T08:52:36;12.00;99.90
12885;DHT22;6510;51.362;7.370;2022-11-15T08:55:01;12.10;99.90
12885;DHT22;6510;51.362;7.370;2022-11-15T08:57:29;12.10;99.90
12885;DHT22;6510;51.362;7.370;2022-11-15T08:59:56;12.10;99.90
12885;DHT22;6510;51.362;7.370;2022-11-15T09:02:21;12.10;99.90
12885;DHT22;6510;51.362;7.370;2022-11-15T09:04:47;12.10;99.90
12885;DHT22;6510;51.362;7.370;2022-11-15T09:07:13;12.10;99.90
12885;DHT22;6510;51.362;7.370;2022-11-15T09:09:39;12.10;99.90
12885;DHT22;6510;51.362;7.370;2022-11-15T09:12:06;12.30;99.90
12885;DHT22;6510;51.362;7.370;2022-11-15T09:14:31;12.30;99.90
12885;DHT22;6510;51.362;7.370;2022-11-15T09:16:58;12.50;99.90
12885;DHT22;6510;51.362;7.370;2022-11-15T09:19:24;12.30;99.90
12885;DHT22;6510;51.362;7.370;2022-11-15T09:21:49;12.30;99.90
12885;DHT22;6510;51.362;7.370;2022-11-15T09:24:15;12.40;99.90
12885;DHT22;6510;51.362;7.370;2022-11-15T09:26:42;12.40;99.90
12885;DHT22;6510;51.362;7.370;2022-11-15T09:29:08;12.40;99.90
12885;DHT22;6510;51.362;7.370;2022-11-15T09:31:33;12.40;99.90
12885;DHT22;6510;51.362;7.370;2022-11-15T09:33:59;12.30;99.90
12885;DHT22;6510;51.362;7.370;2022-11-15T09:36:26;12.40;99.90
12885;DHT22;6510;51.362;7.370;2022-11-15T09:38:52;12.40;99.90
12885;DHT22;6510;51.362;7.370;2022-11-15T09:42:08;12.50;99.90
12885;DHT22;6510;51.362;7.370;2022-11-15T09:49:52;12.60;99.90
12885;DHT22;6510;51.362;7.370;2022-11-15T09:52:19;12.50;99.90
12885;DHT22;6510;51.362;7.370;2022-11-15T09:54:49;12.50;99.90
12885;DHT22;6510;51.362;7.370;2022-11-15T09:57:16;12.50;99.90
12885;DHT22;6510;51.362;7.370;2022-11-15T10:03:07;12.70;99.90
12885;DHT22;6510;51.362;7.370;2022-11-15T10:05:47;12.80;99.90
12885;DHT22;6510;51.362;7.370;2022-11-15T10:11:09;13.20;99.90
12885;DHT22;6510;51.362;7.370;2022-11-15T10:13:40;13.20;99.90
12885;DHT22;6510;51.362;7.370;2022-11-15T10:22:30;13.30;99.90
12885;DHT22;6510;51.362;7.370;2022-11-15T10:27:42;14.00;99.90
12885;DHT22;6510;51.362;7.370;2022-11-15T10:30:14;14.50;99.90
12885;DHT22;6510;51.362;7.370;2022-11-15T10:32:42;13.90;99.90
12885;DHT22;6510;51.362;7.370;2022-11-15T10:35:21;14.70;99.90
12885;DHT22;6510;51.362;7.370;2022-11-15T10:37:47;14.90;99.90
12885;DHT22;6510;51.362;7.370;2022-11-15T10:40:17;14.90;99.90
12885;DHT22;6510;51.362;7.370;2022-11-15T10:42:43;14.70;99.90
12885;DHT22;6510;51.362;7.370;2022-11-15T10:45:29;14.80;99.90
12885;DHT22;6510;51.362;7.370;2022-11-15T10:50:45;15.00;99.90
12885;DHT22;6510;51.362;7.370;2022-11-15T10:53:21;15.70;99.90
12885;DHT22;6510;51.362;7.370;2022-11-15T10:55:49;16.40;99.90
12885;DHT22;6510;51.362;7.370;2022-11-15T11:00:53;15.80;99.90
12885;DHT22;6510;51.362;7.370;2022-11-15T11:03:35;16.20;99.90
12885;DHT22;6510;51.362;7.370;2022-11-15T11:06:16;16.80;99.90
12885;DHT22;6510;51.362;7.370;2022-11-15T11:08:59;16.60;99.90
12885;DHT22;6510;51.362;7.370;2022-11-15T11:14:21;18.20;99.90
12885;DHT22;6510;51.362;7.370;2022-11-15T11:16:52;18.60;99.90
12885;DHT22;6510;51.362;7.370;2022-11-15T11:25:08;17.60;99.90
12885;DHT22;6510;51.362;7.370;2022-11-15T11:30:31;16.70;99.90
12885;DHT22;6510;51.362;7.370;2022-11-15T11:46:47;17.80;99.90
12885;DHT22;6510;51.362;7.370;2022-11-15T11:49:25;17.90;99.90
12885;DHT22;6510;51.362;7.370;2022-11-15T11:52:02;17.10;99.90
12885;DHT22;6510;51.362;7.370;2022-11-15T11:58:09;18.50;99.90
12885;DHT22;6510;51.362;7.370;2022-11-15T12:00:51;18.00;99.90
12885;DHT22;6510;51.362;7.370;2022-11-15T12:05:54;16.90;99.90
12885;DHT22;6510;51.362;7.370;2022-11-15T12:08:51;17.10;99.90
12885;DHT22;6510;51.362;7.370;2022-11-15T12:14:00;15.90;99.90
12885;DHT22;6510;51.362;7.370;2022-11-15T12:16:29;16.50;99.90
12885;DHT22;6510;51.362;7.370;2022-11-15T12:18:58;16.60;99.90
12885;DHT22;6510;51.362;7.370;2022-11-15T12:24:04;16.00;99.90
12885;DHT22;6510;51.362;7.370;2022-11-15T12:26:35;15.80;99.90
12885;DHT22;6510;51.362;7.370;2022-11-15T12:29:16;15.70;99.90
12885;DHT22;6510;51.362;7.370;2022-11-15T12:31:51;16.00;99.90
12885;DHT22;6510;51.362;7.370;2022-11-15T12:36:46;15.80;99.90
12885;DHT22;6510;51.362;7.370;2022-11-15T12:39:14;16.00;99.90
12885;DHT22;6510;51.362;7.370;2022-11-15T12:41:41;15.70;99.90
12885;DHT22;6510;51.362;7.370;2022-11-15T12:44:12;15.40;99.90
12885;DHT22;6510;51.362;7.370;2022-11-15T12:59:52;15.90;99.90
12885;DHT22;6510;51.362;7.370;2022-11-15T13:02:29;15.80;99.90
12885;DHT22;6510;51.362;7.370;2022-11-15T13:29:18;16.80;99.90
12885;DHT22;6510;51.362;7.370;2022-11-15T13:31:45;17.40;99.90
12885;DHT22;6510;51.362;7.370;2022-11-15T13:36:52;16.90;99.90
12885;DHT22;6510;51.362;7.370;2022-11-15T13:39:32;17.20;99.90
12885;DHT22;6510;51.362;7.370;2022-11-15T13:41:59;15.00;99.90
12885;DHT22;6510;51.362;7.370;2022-11-15T13:48:12;13.50;99.90
12885;DHT22;6510;51.362;7.370;2022-11-15T13:50:38;13.40;99.90
12885;DHT22;6510;51.362;7.370;2022-11-15T13:53:05;13.00;99.90
12885;DHT22;6510;51.362;7.370;2022-11-15T13:55:31;12.90;99.90
12885;DHT22;6510;51.362;7.370;2022-11-15T13:58:03;12.80;99.90
12885;DHT22;6510;51.362;7.370;2022-11-15T14:00:41;12.60;99.90
12885;DHT22;6510;51.362;7.370;2022-11-15T14:03:22;12.70;99.90
12885;DHT22;6510;51.362;7.370;2022-11-15T14:06:07;12.60;99.90
12885;DHT22;6510;51.362;7.370;2022-11-15T14:08:36;12.50;99.90
12885;DHT22;6510;51.362;7.370;2022-11-15T14:11:19;12.60;99.90
12885;DHT22;6510;51.362;7.370;2022-11-15T14:16:38;12.60;99.90
12885;DHT22;6510;51.362;7.370;2022-11-15T14:22:22;12.60;99.90
12885;DHT22;6510;51.362;7.370;2022-11-15T14:25:17;12.70;99.90
12885;DHT22;6510;51.362;7.370;2022-11-15T14:30:29;12.70;99.90
12885;DHT22;6510;51.362;7.370;2022-11-15T14:32:55;12.60;99.90
12885;DHT22;6510;51.362;7.370;2022-11-15T14:35:22;12.60;99.90
12885;DHT22;6510;51.362;7.370;2022-11-15T14:37:49;12.50;99.90
12885;DHT22;6510;51.362;7.370;2022-11-15T14:40:17;12.50;99.90
12885;DHT22;6510;51.362;7.370;2022-11-15T14:42:45;12.50;99.90
12885;DHT22;6510;51.362;7.370;2022-11-15T14:45:16;12.50;99.90
12885;DHT22;6510;51.362;7.370;2022-11-15T14:47:42;12.50;99.90
12885;DHT22;6510;51.362;7.370;2022-11-15T14:50:17;12.50;99.90
12885;DHT22;6510;51.362;7.370;2022-11-15T14:52:43;12.50;99.90
12885;DHT22;6510;51.362;7.370;2022-11-15T14:55:33;12.50;99.90
12885;DHT22;6510;51.362;7.370;2022-11-15T14:58:06;12.50;99.90
12885;DHT22;6510;51.362;7.370;2022-11-15T15:00:36;12.50;99.90
12885;DHT22;6510;51.362;7.370;2022-11-15T15:03:04;12.50;99.90
12885;DHT22;6510;51.362;7.370;2022-11-15T15:05:41;12.50;99.90
12885;DHT22;6510;51.362;7.370;2022-11-15T15:08:07;12.50;99.90
12885;DHT22;6510;51.362;7.370;2022-11-15T15:10:39;12.50;99.90
12885;DHT22;6510;51.362;7.370;2022-11-15T15:13:16;12.50;99.90
12885;DHT22;6510;51.362;7.370;2022-11-15T15:15:42;12.40;99.90
12885;DHT22;6510;51.362;7.370;2022-11-15T15:18:08;12.40;99.90
12885;DHT22;6510;51.362;7.370;2022-11-15T15:20:40;12.30;99.90
12885;DHT22;6510;51.362;7.370;2022-11-15T15:25:40;12.30;99.90
12885;DHT22;6510;51.362;7.370;2022-11-15T15:28:07;12.30;99.90
12885;DHT22;6510;51.362;7.370;2022-11-15T15:30:32;12.30;99.90
12885;DHT22;6510;51.362;7.370;2022-11-15T15:32:58;12.20;99.90
12885;DHT22;6510;51.362;7.370;2022-11-15T15:35:29;12.20;99.90
12885;DHT22;6510;51.362;7.370;2022-11-15T15:37:55;12.30;99.90
12885;DHT22;6510;51.362;7.370;2022-11-15T15:40:23;12.20;99.90
12885;DHT22;6510;51.362;7.370;2022-11-15T15:45:39;12.20;99.90
12885;DHT22;6510;51.362;7.370;2022-11-15T15:48:05;12.30;99.90
12885;DHT22;6510;51.362;7.370;2022-11-15T15:50:34;12.30;99.90
12885;DHT22;6510;51.362;7.370;2022-11-15T15:53:03;12.20;99.90
12885;DHT22;6510;51.362;7.370;2022-11-15T15:55:31;12.20;99.90
12885;DHT22;6510;51.362;7.370;2022-11-15T15:57:57;12.30;99.90
12885;DHT22;6510;51.362;7.370;2022-11-15T16:00:24;12.20;99.90
12885;DHT22;6510;51.362;7.370;2022-11-15T16:02:50;12.20;99.90
12885;DHT22;6510;51.362;7.370;2022-11-15T16:05:16;12.20;99.90
12885;DHT22;6510;51.362;7.370;2022-11-15T16:07:43;12.20;99.90
12885;DHT22;6510;51.362;7.370;2022-11-15T16:12:46;12.10;99.90
12885;DHT22;6510;51.362;7.370;2022-11-15T16:15:12;12.20;99.90
12885;DHT22;6510;51.362;7.370;2022-11-15T16:17:42;12.30;99.90
12885;DHT22;6510;51.362;7.370;2022-11-15T16:23:17;12.20;99.90
12885;DHT22;6510;51.362;7.370;2022-11-15T16:25:49;12.20;99.90
12885;DHT22;6510;51.362;7.370;2022-11-15T16:28:30;12.20;99.90
12885;DHT22;6510;51.362;7.370;2022-11-15T16:33:29;12.20;99.90
12885;DHT22;6510;51.362;7.370;2022-11-15T16:35:57;12.30;99.90
12885;DHT22;6510;51.362;7.370;2022-11-15T16:38:23;12.30;99.90
12885;DHT22;6510;51.362;7.370;2022-11-15T16:40:49;12.20;99.90
12885;DHT22;6510;51.362;7.370;2022-11-15T16:43:14;12.30;99.90
12885;DHT22;6510;51.362;7.370;2022-11-15T16:45:40;12.30;99.90
12885;DHT22;6510;51.362;7.370;2022-11-15T16:48:07;12.20;99.90
12885;DHT22;6510;51.362;7.370;2022-11-15T16:50:40;12.30;99.90
12885;DHT22;6510;51.362;7.370;2022-11-15T16:53:06;12.30;99.90
12885;DHT22;6510;51.362;7.370;2022-11-15T16:55:31;12.20;99.90
12885;DHT22;6510;51.362;7.370;2022-11-15T16:57:57;12.30;99.90
12885;DHT22;6510;51.362;7.370;2022-11-15T17:00:23;12.30;99.90
12885;DHT22;6510;51.362;7.370;2022-11-15T17:02:50;12.30;99.90
12885;DHT22;6510;51.362;7.370;2022-11-15T17:05:18;12.30;99.90
12885;DHT22;6510;51.362;7.370;2022-11-15T17:07:50;12.30;99.90
12885;DHT22;6510;51.362;7.370;2022-11-15T17:10:20;12.30;99.90
12885;DHT22;6510;51.362;7.370;2022-11-15T17:12:46;12.30;99.90
12885;DHT22;6510;51.362;7.370;2022-11-15T17:15:12;12.40;99.90
12885;DHT22;6510;51.362;7.370;2022-11-15T17:17:39;12.30;99.90
12885;DHT22;6510;51.362;7.370;2022-11-15T17:20:06;12.30;99.90
12885;DHT22;6510;51.362;7.370;2022-11-15T17:22:35;12.30;99.90
12885;DHT22;6510;51.362;7.370;2022-11-15T17:25:02;12.30;99.90
12885;DHT22;6510;51.362;7.370;2022-11-15T17:30:19;12.40;99.90
12885;DHT22;6510;51.362;7.370;2022-11-15T17:32:45;12.40;99.90
12885;DHT22;6510;51.362;7.370;2022-11-15T17:35:14;12.40;99.90
12885;DHT22;6510;51.362;7.370;2022-11-15T17:37:39;12.40;99.90
12885;DHT22;6510;51.362;7.370;2022-11-15T17:40:06;12.40;99.90
12885;DHT22;6510;51.362;7.370;2022-11-15T17:42:31;12.40;99.90
12885;DHT22;6510;51.362;7.370;2022-11-15T17:45:00;12.40;99.90
12885;DHT22;6510;51.362;7.370;2022-11-15T17:47:25;12.50;99.90
12885;DHT22;6510;51.362;7.370;2022-11-15T17:49:51;12.40;99.90
12885;DHT22;6510;51.362;7.370;2022-11-15T17:52:17;12.50;99.90
12885;DHT22;6510;51.362;7.370;2022-11-15T17:54:43;12.50;99.90
12885;DHT22;6510;51.362;7.370;2022-11-15T17:57:09;12.40;99.90
12885;DHT22;6510;51.362;7.370;2022-11-15T17:59:34;12.40;99.90
12885;DHT22;6510;51.362;7.370;2022-11-15T18:02:00;12.50;99.90
12885;DHT22;6510;51.362;7.370;2022-11-15T18:04:26;12.40;99.90
12885;DHT22;6510;51.362;7.370;2022-11-15T18:06:53;12.40;99.90
12885;DHT22;6510;51.362;7.370;2022-11-15T18:09:20;12.40;99.90
12885;DHT22;6510;51.362;7.370;2022-11-15T18:11:46;12.40;99.90
12885;DHT22;6510;51.362;7.370;2022-11-15T18:14:16;12.40;99.90
12885;DHT22;6510;51.362;7.370;2022-11-15T18:16:45;12.30;99.90
12885;DHT22;6510;51.362;7.370;2022-11-15T18:19:12;12.40;99.90
12885;DHT22;6510;51.362;7.370;2022-11-15T18:21:39;12.40;99.90
12885;DHT22;6510;51.362;7.370;2022-11-15T18:24:24;12.50;99.90
12885;DHT22;6510;51.362;7.370;2022-11-15T18:26:50;12.60;99.90
12885;DHT22;6510;51.362;7.370;2022-11-15T18:29:16;12.60;99.90
12885;DHT22;6510;51.362;7.370;2022-11-15T18:31:43;12.60;99.90
12885;DHT22;6510;51.362;7.370;2022-11-15T18:34:08;12.60;99.90
12885;DHT22;6510;51.362;7.370;2022-11-15T18:36:35;12.50;99.90